createdAt,value
2023-03-05T00:01:33.261Z,102287.50
2023-03-05T00:04:02.792Z,102280.44
2023-03-05T00:06:32.050Z,102281.28
2023-03-05T00:09:02.528Z,102273.38
2023-03-05T00:11:32.030Z,102275.94
2023-03-05T00:14:00.657Z,102281.28
2023-03-05T00:16:30.624Z,102269.84
2023-03-05T00:19:00.278Z,102276.13
2023-03-05T00:21:30.116Z,102278.00
2023-03-05T00:24:01.038Z,102268.34
2023-03-05T00:26:30.327Z,102262.25
2023-03-05T00:28:59.530Z,102256.03
2023-03-05T00:31:31.540Z,102245.44
2023-03-05T00:34:01.141Z,102244.50
2023-03-05T00:36:29.572Z,102242.78
2023-03-05T00:38:57.935Z,102239.25
2023-03-05T00:41:26.033Z,102238.38
2023-03-05T00:43:54.105Z,102236.56
2023-03-05T00:46:23.125Z,102243.63
2023-03-05T00:48:52.510Z,102240.09
2023-03-05T00:51:20.984Z,102234.78
2023-03-05T00:53:49.248Z,102233.06
2023-03-05T00:56:17.066Z,102232.09
2023-03-05T00:58:44.941Z,102233.06
2023-03-05T01:01:12.956Z,102227.72
2023-03-05T01:03:40.869Z,102221.53
2023-03-05T01:06:13.497Z,102218.84
2023-03-05T01:08:41.501Z,102216.19
2023-03-05T01:11:10.254Z,102211.84
2023-03-05T01:13:38.643Z,102204.91
2023-03-05T01:16:06.982Z,102203.22
2023-03-05T01:18:34.952Z,102206.00
2023-03-05T01:21:02.992Z,102200.66
2023-03-05T01:23:34.299Z,102201.66
2023-03-05T01:26:02.458Z,102196.31
2023-03-05T01:28:31.018Z,102192.88
2023-03-05T01:30:58.964Z,102198.22
2023-03-05T01:33:26.962Z,102193.84
2023-03-05T01:35:54.933Z,102181.44
2023-03-05T01:38:22.855Z,102180.50
2023-03-05T01:40:52.245Z,102171.56
2023-03-05T01:43:27.299Z,102166.38
2023-03-05T01:46:24.836Z,102159.31
2023-03-05T01:48:56.162Z,102161.22
2023-03-05T01:51:28.315Z,102159.47
2023-03-05T01:54:00.095Z,102153.28
2023-03-05T01:56:31.847Z,102156.88
2023-03-05T01:59:03.681Z,102147.06
2023-03-05T02:01:56.988Z,102154.22
2023-03-05T02:04:31.949Z,102148.97
2023-03-05T02:07:00.615Z,102140.03
2023-03-05T02:09:29.585Z,102134.69
2023-03-05T02:11:59.331Z,102136.41
2023-03-05T02:14:28.510Z,102132.78
2023-03-05T02:16:56.656Z,102137.22
2023-03-05T02:19:31.017Z,102129.22
2023-03-05T02:22:00.451Z,102119.63
2023-03-05T02:24:37.525Z,102117.97
2023-03-05T02:27:06.297Z,102111.78
2023-03-05T02:29:36.961Z,102111.78
2023-03-05T02:32:05.395Z,102097.44
2023-03-05T02:34:33.442Z,102097.34
2023-03-05T02:37:04.685Z,102098.31
2023-03-05T02:39:32.868Z,102092.75
2023-03-05T02:42:03.467Z,102080.34
2023-03-05T02:44:31.848Z,102086.53
2023-03-05T02:46:59.761Z,102082.13
2023-03-05T02:49:27.755Z,102079.66
2023-03-05T02:51:55.645Z,102081.50
2023-03-05T02:54:25.297Z,102073.78
2023-03-05T02:56:53.591Z,102073.78
2023-03-05T02:59:21.459Z,102074.94
2023-03-05T03:01:49.424Z,102085.16
2023-03-05T03:04:17.347Z,102067.59
2023-03-05T03:06:45.313Z,102064.94
2023-03-05T03:09:13.255Z,102070.09
2023-03-05T03:11:42.668Z,102065.66
2023-03-05T03:14:10.584Z,102053.19
2023-03-05T03:16:38.793Z,102055.75
2023-03-05T03:19:06.905Z,102052.94
2023-03-05T03:21:34.797Z,102046.66
2023-03-05T03:24:02.824Z,102044.69
2023-03-05T03:26:33.129Z,102039.28
2023-03-05T03:29:02.533Z,102040.03
2023-03-05T03:31:30.572Z,102027.56
2023-03-05T03:33:58.427Z,102027.56
2023-03-05T03:36:26.576Z,102019.50
2023-03-05T03:38:54.535Z,102018.56
2023-03-05T03:41:22.496Z,102021.22
2023-03-05T03:43:50.333Z,102018.47
2023-03-05T03:46:19.663Z,102005.06
2023-03-05T03:48:51.443Z,102002.41
2023-03-05T03:51:19.734Z,102007.66
2023-03-05T03:53:47.892Z,102000.59
2023-03-05T03:56:15.816Z,101998.84
2023-03-05T03:58:43.789Z,101996.19
2023-03-05T04:01:11.892Z,101986.41
2023-03-05T04:03:41.189Z,101983.75
2023-03-05T04:06:09.580Z,101981.94
2023-03-05T04:08:37.990Z,101976.59
2023-03-05T04:11:06.636Z,101985.63
2023-03-05T04:13:34.607Z,101984.84
2023-03-05T04:16:02.763Z,101981.72
2023-03-05T04:18:32.479Z,101990.84
2023-03-05T04:21:02.224Z,101989.97
2023-03-05T04:23:30.299Z,101997.22
2023-03-05T04:25:58.232Z,101995.31
2023-03-05T04:28:26.208Z,101999.06
2023-03-05T04:30:54.107Z,101997.34
2023-03-05T04:33:22.130Z,101992.97
2023-03-05T04:35:50.182Z,101988.59
2023-03-05T04:38:20.092Z,101986.84
2023-03-05T04:40:48.527Z,101990.47
2023-03-05T04:43:16.513Z,101991.41
2023-03-05T04:45:45.177Z,101995.97
2023-03-05T04:48:13.439Z,101994.41
2023-03-05T04:50:41.944Z,101991.97
2023-03-05T04:53:09.883Z,101992.06
2023-03-05T04:55:39.250Z,101991.28
2023-03-05T04:58:07.309Z,101993.00
2023-03-05T05:00:35.506Z,101985.94
2023-03-05T05:03:03.861Z,101985.94
2023-03-05T05:05:32.186Z,101975.19
2023-03-05T05:08:00.549Z,101969.97
2023-03-05T05:10:29.024Z,101969.19
2023-03-05T05:12:58.685Z,101966.53
2023-03-05T05:15:26.605Z,101959.44
2023-03-05T05:17:54.531Z,101956.97
2023-03-05T05:20:22.474Z,101950.84
2023-03-05T05:22:50.612Z,101945.50
2023-03-05T05:25:18.641Z,101936.59
2023-03-05T05:27:46.804Z,101943.56
2023-03-05T05:30:16.734Z,101941.59
2023-03-05T05:32:44.649Z,101936.97
2023-03-05T05:35:13.151Z,101934.97
2023-03-05T05:37:41.136Z,101920.66
2023-03-05T05:40:10.704Z,101924.88
2023-03-05T05:42:39.054Z,101914.13
2023-03-05T05:45:08.050Z,101912.31
2023-03-05T05:47:37.491Z,101912.22
2023-03-05T05:50:07.808Z,101905.03
2023-03-05T05:52:35.780Z,101899.59
2023-03-05T05:55:03.774Z,101908.44
2023-03-05T05:57:31.860Z,101898.63
2023-03-05T06:00:01.329Z,101896.78
2023-03-05T06:02:29.320Z,101890.59
2023-03-05T06:04:58.814Z,101904.69
2023-03-05T06:07:26.738Z,101889.53
2023-03-05T06:09:54.758Z,101889.53
2023-03-05T06:12:22.751Z,101886.81
2023-03-05T06:14:51.070Z,101884.91
2023-03-05T06:17:28.593Z,101876.91
2023-03-05T06:19:59.659Z,101881.28
2023-03-05T06:22:27.704Z,101881.28
2023-03-05T06:24:55.713Z,101875.97
2023-03-05T06:27:23.793Z,101878.63
2023-03-05T06:29:54.008Z,101874.16
2023-03-05T06:32:22.373Z,101868.91
2023-03-05T06:34:50.938Z,101862.88
2023-03-05T06:37:20.510Z,101868.41
2023-03-05T06:39:48.413Z,101869.94
2023-03-05T06:42:17.774Z,101867.44
2023-03-05T06:44:47.261Z,101858.59
2023-03-05T06:47:16.332Z,101858.41
2023-03-05T06:49:44.443Z,101860.16
2023-03-05T06:52:12.982Z,101861.16
2023-03-05T06:54:42.262Z,101855.94
2023-03-05T06:57:11.934Z,101867.50
2023-03-05T06:59:39.835Z,101860.47
2023-03-05T07:02:07.897Z,101856.09
2023-03-05T07:04:35.807Z,101862.38
2023-03-05T07:07:03.709Z,101859.81
2023-03-05T07:09:32.041Z,101867.88
2023-03-05T07:12:01.393Z,101870.72
2023-03-05T07:14:29.526Z,101873.53
2023-03-05T07:16:57.494Z,101867.44
2023-03-05T07:19:25.440Z,101873.69
2023-03-05T07:21:53.694Z,101873.69
2023-03-05T07:24:21.684Z,101868.38
2023-03-05T07:26:49.634Z,101871.81
2023-03-05T07:29:18.950Z,101873.63
2023-03-05T07:31:47.106Z,101878.00
2023-03-05T07:34:15.217Z,101877.16
2023-03-05T07:36:43.176Z,101877.16
2023-03-05T07:39:12.813Z,101881.53
2023-03-05T07:41:40.946Z,101877.91
2023-03-05T07:44:08.916Z,101880.69
2023-03-05T07:46:38.506Z,101878.09
2023-03-05T07:49:06.483Z,101875.50
2023-03-05T07:51:34.539Z,101868.00
2023-03-05T07:54:02.516Z,101865.59
2023-03-05T07:56:32.434Z,101872.47
2023-03-05T07:59:00.844Z,101873.19
2023-03-05T08:01:28.922Z,101868.56
2023-03-05T08:03:58.463Z,101868.31
2023-03-05T08:06:26.552Z,101868.06
2023-03-05T08:08:54.560Z,101861.59
2023-03-05T08:11:22.987Z,101870.19
2023-03-05T08:13:51.479Z,101863.75
2023-03-05T08:16:21.183Z,101859.19
2023-03-05T08:18:49.604Z,101857.28
2023-03-05T08:21:20.877Z,101861.63
2023-03-05T08:23:49.096Z,101859.59
2023-03-05T08:26:19.488Z,101865.75
2023-03-05T08:28:47.533Z,101853.97
2023-03-05T08:31:18.516Z,101849.28
2023-03-05T08:33:46.706Z,101861.59
2023-03-05T08:36:14.668Z,101853.44
2023-03-05T08:38:44.850Z,101852.38
2023-03-05T08:41:12.759Z,101848.72
2023-03-05T08:43:40.868Z,101851.19
2023-03-05T08:46:09.441Z,101842.22
2023-03-05T08:48:37.817Z,101846.63
2023-03-05T08:51:07.148Z,101835.88
2023-03-05T08:53:35.280Z,101831.28
2023-03-05T08:56:05.155Z,101829.41
2023-03-05T08:58:34.598Z,101829.31
2023-03-05T09:01:02.594Z,101835.25
2023-03-05T09:03:30.830Z,101829.81
2023-03-05T09:06:01.107Z,101821.72
2023-03-05T09:08:30.091Z,101816.19
2023-03-05T09:10:58.202Z,101810.78
2023-03-05T09:13:28.066Z,101826.53
2023-03-05T09:15:56.963Z,101815.66
2023-03-05T09:18:25.019Z,101812.72
2023-03-05T09:20:53.081Z,101816.19
2023-03-05T09:23:21.665Z,101817.78
2023-03-05T09:25:49.933Z,101821.25
2023-03-05T09:28:17.915Z,101810.38
2023-03-05T09:30:47.674Z,101805.03
2023-03-05T09:33:15.995Z,101798.72
2023-03-05T09:35:43.930Z,101802.28
2023-03-05T09:38:11.946Z,101797.81
2023-03-05T09:40:49.056Z,101790.06
2023-03-05T09:43:31.891Z,101783.09
2023-03-05T09:46:13.679Z,101788.53
2023-03-05T09:48:52.112Z,101777.75
2023-03-05T09:51:25.759Z,101780.31
2023-03-05T09:54:03.115Z,101770.59
2023-03-05T09:56:37.159Z,101768.44
2023-03-05T09:59:15.998Z,101766.72
2023-03-05T10:01:46.228Z,101769.59
2023-03-05T10:04:17.621Z,101773.56
2023-03-05T10:06:51.914Z,101769.34
2023-03-05T10:09:39.310Z,101759.84
2023-03-05T10:12:15.031Z,101760.75
2023-03-05T10:14:43.515Z,101758.78
2023-03-05T10:17:45.947Z,101745.06
2023-03-05T10:20:28.477Z,101740.59
2023-03-05T10:23:24.725Z,101740.69
2023-03-05T10:26:16.104Z,101738.28
2023-03-05T10:28:49.577Z,101740.19
2023-03-05T10:31:38.446Z,101738.56
2023-03-05T10:34:29.999Z,101736.09
2023-03-05T10:37:25.087Z,101728.09
2023-03-05T10:40:18.793Z,101736.16
2023-03-05T10:42:54.822Z,101729.22
2023-03-05T10:45:25.817Z,101722.25
2023-03-05T10:47:57.001Z,101725.88
2023-03-05T10:50:28.934Z,101717.88
2023-03-05T10:53:14.295Z,101718.66
2023-03-05T10:55:42.620Z,101703.50
2023-03-05T10:58:13.240Z,101709.47
2023-03-05T11:00:42.255Z,101707.78
2023-03-05T11:03:11.996Z,101705.91
2023-03-05T11:06:02.507Z,101703.22
2023-03-05T11:08:33.370Z,101706.53
2023-03-05T11:11:07.666Z,101700.19
2023-03-05T11:13:53.913Z,101701.72
2023-03-05T11:16:24.029Z,101707.06
2023-03-05T11:19:12.222Z,101698.19
2023-03-05T11:21:41.923Z,101687.41
2023-03-05T11:24:15.059Z,101691.78
2023-03-05T11:26:52.406Z,101684.56
2023-03-05T11:29:23.652Z,101688.00
2023-03-05T11:31:52.651Z,101684.38
2023-03-05T11:34:29.069Z,101682.47
2023-03-05T11:37:04.832Z,101680.09
2023-03-05T11:39:35.455Z,101671.97
2023-03-05T11:42:06.512Z,101660.16
2023-03-05T11:44:40.836Z,101660.63
2023-03-05T11:47:22.184Z,101653.19
2023-03-05T11:49:52.501Z,101648.41
2023-03-05T11:52:25.289Z,101653.47
2023-03-05T11:55:03.848Z,101649.09
2023-03-05T11:57:40.637Z,101637.47
2023-03-05T12:00:12.569Z,101633.06
2023-03-05T12:02:40.538Z,101634.03
2023-03-05T12:05:09.250Z,101625.25
2023-03-05T12:07:43.317Z,101626.09
2023-03-05T12:10:17.591Z,101626.09
2023-03-05T12:12:53.390Z,101627.56
2023-03-05T12:15:35.049Z,101614.94
2023-03-05T12:18:14.175Z,101614.84
2023-03-05T12:20:49.286Z,101610.19
2023-03-05T12:23:21.368Z,101604.84
2023-03-05T12:25:52.412Z,101604.84
2023-03-05T12:28:54.867Z,101595.88
2023-03-05T12:31:40.672Z,101597.56
2023-03-05T12:34:47.264Z,101593.84
2023-03-05T12:37:37.587Z,101594.72
2023-03-05T12:40:22.004Z,101589.00
2023-03-05T12:42:55.940Z,101588.81
2023-03-05T12:45:35.271Z,101578.88
2023-03-05T12:48:43.406Z,101570.69
2023-03-05T12:51:16.404Z,101569.94
2023-03-05T12:53:44.401Z,101561.03
2023-03-05T12:56:25.026Z,101552.16
2023-03-05T12:58:56.758Z,101551.44
2023-03-05T13:01:44.065Z,101553.44
2023-03-05T13:04:19.821Z,101549.22
2023-03-05T13:06:48.038Z,101555.94
2023-03-05T13:09:21.763Z,101547.34
2023-03-05T13:11:53.421Z,101547.47
2023-03-05T13:14:32.440Z,101536.69
2023-03-05T13:17:01.424Z,101535.72
2023-03-05T13:19:31.156Z,101539.78
2023-03-05T13:22:00.775Z,101530.81
2023-03-05T13:24:29.271Z,101529.88
2023-03-05T13:26:59.516Z,101533.16
2023-03-05T13:29:30.971Z,101525.69
2023-03-05T13:32:02.207Z,101514.69
2023-03-05T13:34:46.281Z,101512.47
2023-03-05T13:37:20.109Z,101498.69
2023-03-05T13:39:51.601Z,101500.09
2023-03-05T13:42:24.586Z,101498.06
2023-03-05T13:44:56.854Z,101494.44
2023-03-05T13:47:28.611Z,101493.50
2023-03-05T13:50:00.091Z,101484.28
2023-03-05T13:52:29.912Z,101479.72
2023-03-05T13:54:58.105Z,101473.28
2023-03-05T13:57:40.036Z,101476.81
2023-03-05T14:00:26.942Z,101466.13
2023-03-05T14:02:59.533Z,101464.34
2023-03-05T14:05:27.837Z,101460.72
2023-03-05T14:07:56.891Z,101443.91
2023-03-05T14:10:31.125Z,101435.03
2023-03-05T14:13:03.017Z,101427.78
2023-03-05T14:15:33.423Z,101429.38
2023-03-05T14:18:18.962Z,101424.69
2023-03-05T14:21:03.585Z,101421.50
2023-03-05T14:23:41.636Z,101423.81
2023-03-05T14:26:21.922Z,101419.34
2023-03-05T14:28:55.616Z,101405.66
2023-03-05T14:31:24.413Z,101406.19
2023-03-05T14:33:53.797Z,101398.69
2023-03-05T14:36:24.931Z,101395.13
2023-03-05T14:38:55.004Z,101395.22
2023-03-05T14:41:32.239Z,101395.63
2023-03-05T14:44:01.753Z,101393.38
2023-03-05T14:46:29.932Z,101380.50
2023-03-05T14:48:58.011Z,101382.13
2023-03-05T14:51:26.852Z,101377.72
2023-03-05T14:53:55.131Z,101376.63
2023-03-05T14:56:26.687Z,101372.78
2023-03-05T14:58:55.404Z,101370.84
2023-03-05T15:01:25.598Z,101359.63
2023-03-05T15:03:53.582Z,101358.25
2023-03-05T15:06:28.618Z,101363.09
2023-03-05T15:08:56.656Z,101358.06
2023-03-05T15:11:24.582Z,101351.69
2023-03-05T15:13:52.642Z,101344.66
2023-03-05T15:16:21.373Z,101338.47
2023-03-05T15:18:50.944Z,101332.09
2023-03-05T15:21:19.028Z,101334.25
2023-03-05T15:23:46.972Z,101319.81
2023-03-05T15:26:16.903Z,101326.59
2023-03-05T15:28:45.015Z,101316.53
2023-03-05T15:31:12.963Z,101314.00
2023-03-05T15:33:41.915Z,101302.22
2023-03-05T15:36:11.551Z,101295.91
2023-03-05T15:38:41.665Z,101296.56
2023-03-05T15:41:09.746Z,101308.41
2023-03-05T15:43:38.516Z,101299.97
2023-03-05T15:46:07.372Z,101298.72
2023-03-05T15:48:35.506Z,101290.22
2023-03-05T15:51:07.284Z,101283.28
2023-03-05T15:53:36.797Z,101286.69
2023-03-05T15:56:04.930Z,101274.88
2023-03-05T15:58:32.836Z,101276.81
2023-03-05T16:01:01.097Z,101270.69
2023-03-05T16:03:29.462Z,101268.25
2023-03-05T16:05:57.545Z,101275.72
2023-03-05T16:08:25.778Z,101265.69
2023-03-05T16:10:55.324Z,101260.75
2023-03-05T16:13:23.303Z,101252.13
2023-03-05T16:15:53.283Z,101249.13
2023-03-05T16:18:23.015Z,101249.97
2023-03-05T16:20:51.150Z,101252.09
2023-03-05T16:23:19.287Z,101240.06
2023-03-05T16:25:47.460Z,101250.31
2023-03-05T16:28:19.501Z,101249.47
2023-03-05T16:30:54.722Z,101245.84
2023-03-05T16:33:22.812Z,101240.69
2023-03-05T16:35:50.980Z,101230.03
2023-03-05T16:38:20.391Z,101235.47
2023-03-05T16:41:07.346Z,101222.13
2023-03-05T16:43:38.096Z,101219.56
2023-03-05T16:46:06.444Z,101221.69
2023-03-05T16:48:35.983Z,101220.28
2023-03-05T16:51:04.534Z,101225.00
2023-03-05T16:53:33.000Z,101218.16
2023-03-05T16:56:04.087Z,101227.34
2023-03-05T16:58:35.247Z,101229.38
2023-03-05T17:01:09.293Z,101220.72
2023-03-05T17:03:39.028Z,101222.66
2023-03-05T17:06:10.903Z,101221.69
2023-03-05T17:08:39.276Z,101221.69
2023-03-05T17:11:07.399Z,101217.09
2023-03-05T17:13:35.442Z,101211.53
2023-03-05T17:16:06.226Z,101207.16
2023-03-05T17:18:34.990Z,101214.97
2023-03-05T17:21:03.991Z,101203.31
2023-03-05T17:23:32.154Z,101198.63
2023-03-05T17:26:00.169Z,101200.97
2023-03-05T17:28:28.134Z,101200.00
2023-03-05T17:31:00.068Z,101195.41
2023-03-05T17:33:30.286Z,101188.16
2023-03-05T17:35:58.482Z,101181.09
2023-03-05T17:38:26.896Z,101191.69
2023-03-05T17:40:55.006Z,101189.66
2023-03-05T17:43:23.284Z,101182.56
2023-03-05T17:45:51.602Z,101185.25
2023-03-05T17:48:19.667Z,101177.47
2023-03-05T17:50:49.200Z,101176.94
2023-03-05T17:53:19.981Z,101174.50
2023-03-05T17:55:48.157Z,101171.28
2023-03-05T17:58:16.162Z,101175.13
2023-03-05T18:00:45.103Z,101161.06
2023-03-05T18:03:13.724Z,101160.28
2023-03-05T18:05:42.576Z,101161.06
2023-03-05T18:08:17.462Z,101163.59
2023-03-05T18:10:46.297Z,101160.63
2023-03-05T18:13:27.100Z,101155.28
2023-03-05T18:15:55.627Z,101156.34
2023-03-05T18:18:38.831Z,101152.81
2023-03-05T18:21:08.074Z,101148.66
2023-03-05T18:23:37.833Z,101143.31
2023-03-05T18:26:05.935Z,101148.78
2023-03-05T18:28:33.903Z,101149.63
2023-03-05T18:31:02.472Z,101149.63
2023-03-05T18:33:30.507Z,101153.06
2023-03-05T18:35:58.828Z,101149.53
2023-03-05T18:38:29.025Z,101145.03
2023-03-05T18:41:03.492Z,101147.81
2023-03-05T18:43:32.040Z,101141.63
2023-03-05T18:46:00.072Z,101141.63
2023-03-05T18:48:28.130Z,101147.72
2023-03-05T18:50:56.229Z,101149.41
2023-03-05T18:53:24.458Z,101155.59
2023-03-05T18:56:03.705Z,101151.22
2023-03-05T19:01:17.651Z,101140.75
2023-03-05T19:03:46.161Z,101147.19
2023-03-05T19:06:14.542Z,101138.41
2023-03-05T19:08:42.888Z,101141.09
2023-03-05T19:11:16.987Z,101140.34
2023-03-05T19:13:50.468Z,101138.41
2023-03-05T19:16:20.402Z,101128.72
2023-03-05T19:18:57.408Z,101137.25
2023-03-05T19:21:30.513Z,101132.88
2023-03-05T19:24:01.644Z,101125.84
2023-03-05T19:35:19.456Z,101120.25
2023-03-05T19:38:02.027Z,101116.63
2023-03-05T19:46:13.220Z,101120.25
2023-03-05T19:48:57.069Z,101114.06
2023-03-05T19:51:27.976Z,101112.38
2023-03-05T19:53:59.305Z,101115.91
2023-03-05T19:56:27.664Z,101114.19
2023-03-05T19:58:55.728Z,101104.56
2023-03-05T20:01:27.701Z,101099.34
2023-03-05T20:03:57.798Z,101095.97
2023-03-05T20:06:28.115Z,101098.63
2023-03-05T20:09:00.836Z,101094.22
2023-03-05T20:11:34.263Z,101096.81
2023-03-05T20:14:04.567Z,101092.22
2023-03-05T20:16:56.218Z,101086.75
2023-03-05T20:19:24.593Z,101085.69
2023-03-05T20:21:56.013Z,101084.72
2023-03-05T20:24:38.472Z,101079.25
2023-03-05T20:27:08.169Z,101079.25
2023-03-05T20:29:42.165Z,101077.34
2023-03-05T20:32:11.687Z,101071.25
2023-03-05T20:34:39.749Z,101066.88
2023-03-05T20:37:07.901Z,101061.56
2023-03-05T20:39:46.627Z,101062.53
2023-03-05T20:42:23.326Z,101054.72
2023-03-05T20:45:08.910Z,101059.22
2023-03-05T20:48:03.398Z,101060.94
2023-03-05T20:50:42.004Z,101057.06
2023-03-05T20:53:11.555Z,101052.38
2023-03-05T20:55:42.250Z,101057.50
2023-03-05T21:01:07.050Z,101064.66
2023-03-05T21:03:58.925Z,101060.38
2023-03-05T21:06:34.766Z,101062.84
2023-03-05T21:09:02.754Z,101057.59
2023-03-05T21:11:30.797Z,101048.72
2023-03-05T21:13:59.400Z,101049.50
2023-03-05T21:16:31.670Z,101047.88
2023-03-05T21:19:04.240Z,101039.78
2023-03-05T21:21:41.788Z,101043.38
2023-03-05T21:24:10.892Z,101046.06
2023-03-05T21:26:39.058Z,101038.28
2023-03-05T21:29:15.415Z,101039.34
2023-03-05T21:31:46.134Z,101036.56
2023-03-05T21:34:49.922Z,101029.31
2023-03-05T21:37:54.899Z,101032.97
2023-03-05T21:40:45.987Z,101031.78
2023-03-05T21:43:15.381Z,101027.88
2023-03-05T21:46:05.998Z,101026.94
2023-03-05T21:48:37.362Z,101024.50
2023-03-05T21:51:11.191Z,101018.19
2023-03-05T21:53:46.448Z,101025.13
2023-03-05T21:56:58.024Z,101019.53
2023-03-05T21:59:45.823Z,101016.88
2023-03-05T22:05:31.293Z,101018.94
2023-03-05T22:08:15.335Z,101009.34
2023-03-05T22:29:44.033Z,101009.84
2023-03-05T22:32:13.585Z,101007.06
2023-03-05T22:38:09.053Z,101000.66
2023-03-05T22:40:48.664Z,100997.00
2023-03-05T22:46:00.754Z,100988.03
2023-03-05T22:49:16.068Z,100988.03
2023-03-05T23:02:07.790Z,100982.25
2023-03-05T23:05:07.039Z,100982.03
2023-03-05T23:07:36.389Z,100981.81
2023-03-05T23:10:09.653Z,100977.34
2023-03-05T23:12:41.905Z,100970.28
2023-03-05T23:15:14.653Z,100974.66
2023-03-05T23:17:43.196Z,100968.34
2023-03-05T23:20:15.468Z,100958.50
2023-03-05T23:22:45.321Z,100955.97
2023-03-05T23:25:14.974Z,100956.94
2023-03-05T23:27:43.639Z,100955.13
2023-03-05T23:30:20.917Z,100954.16
2023-03-05T23:32:51.997Z,100950.63
2023-03-05T23:35:22.802Z,100956.94
2023-03-05T23:37:51.402Z,100953.66
2023-03-05T23:40:22.249Z,100953.66
2023-03-05T23:42:50.665Z,100943.28
2023-03-05T23:45:22.600Z,100950.31
2023-03-05T23:47:51.657Z,100940.59
2023-03-05T23:50:22.061Z,100947.66
2023-03-05T23:52:51.198Z,100941.56
2023-03-05T23:55:20.920Z,100929.94
2023-03-05T23:57:57.020Z,100928.22
